sensor_id;sensor_type;location;lat;lon;timestamp;pressure;altitude;pressure_sealevel;temperature;humidity
19884;BME280;10104;50.732;10.174;2023-02-26T00:00:32;97519.94;;;0.71;87.42
19884;BME280;10104;50.732;10.174;2023-02-26T00:02:53;97522.41;;;0.63;87.55
19884;BME280;10104;50.732;10.174;2023-02-26T00:05:15;97519.66;;;0.74;87.24
19884;BME280;10104;50.732;10.174;2023-02-26T00:07:38;97523.94;;;0.85;86.39
19884;BME280;10104;50.732;10.174;2023-02-26T00:10:00;97526.66;;;0.64;88.03
19884;BME280;10104;50.732;10.174;2023-02-26T00:12:23;97533.09;;;0.70;87.91
19884;BME280;10104;50.732;10.174;2023-02-26T00:14:45;97533.09;;;0.70;88.26
19884;BME280;10104;50.732;10.174;2023-02-26T00:19:40;97538.34;;;0.79;87.96
19884;BME280;10104;50.732;10.174;2023-02-26T00:22:02;97539.97;;;0.61;89.68
19884;BME280;10104;50.732;10.174;2023-02-26T00:24:24;97544.88;;;0.64;90.25
19884;BME280;10104;50.732;10.174;2023-02-26T00:26:45;97542.41;;;0.53;90.34
19884;BME280;10104;50.732;10.174;2023-02-26T00:29:07;97535.97;;;0.48;89.96
19884;BME280;10104;50.732;10.174;2023-02-26T00:31:28;97532.69;;;0.55;89.33
19884;BME280;10104;50.732;10.174;2023-02-26T00:33:51;97535.56;;;0.52;87.96
19884;BME280;10104;50.732;10.174;2023-02-26T00:36:40;97538.69;;;0.56;86.97
19884;BME280;10104;50.732;10.174;2023-02-26T00:41:36;97541.22;;;0.67;85.98
19884;BME280;10104;50.732;10.174;2023-02-26T00:43:59;97537.34;;;0.80;85.35
19884;BME280;10104;50.732;10.174;2023-02-26T00:46:32;97539.84;;;0.92;85.46
19884;BME280;10104;50.732;10.174;2023-02-26T00:49:03;97532.56;;;0.95;84.43
19884;BME280;10104;50.732;10.174;2023-02-26T00:51:41;97537.94;;;1.03;83.89
19884;BME280;10104;50.732;10.174;2023-02-26T00:54:20;97532.31;;;1.08;83.60
19884;BME280;10104;50.732;10.174;2023-02-26T00:56:42;97534.34;;;1.14;83.18
19884;BME280;10104;50.732;10.174;2023-02-26T00:59:04;97536.97;;;1.14;82.52
19884;BME280;10104;50.732;10.174;2023-02-26T01:01:25;97538.59;;;1.25;81.29
19884;BME280;10104;50.732;10.174;2023-02-26T01:03:47;97542.59;;;1.29;80.79
19884;BME280;10104;50.732;10.174;2023-02-26T01:06:13;97533.13;;;1.28;80.68
19884;BME280;10104;50.732;10.174;2023-02-26T01:08:43;97536.41;;;1.30;79.73
19884;BME280;10104;50.732;10.174;2023-02-26T01:11:08;97532.41;;;1.26;77.92
19884;BME280;10104;50.732;10.174;2023-02-26T01:13:30;97543.97;;;1.23;78.90
19884;BME280;10104;50.732;10.174;2023-02-26T01:15:55;97540.66;;;1.21;78.58
19884;BME280;10104;50.732;10.174;2023-02-26T01:18:32;97550.69;;;1.26;78.42
19884;BME280;10104;50.732;10.174;2023-02-26T01:21:03;97548.38;;;1.23;77.31
19884;BME280;10104;50.732;10.174;2023-02-26T01:23:29;97551.66;;;1.15;76.87
19884;BME280;10104;50.732;10.174;2023-02-26T01:25:57;97558.91;;;1.11;77.10
19884;BME280;10104;50.732;10.174;2023-02-26T01:28:20;97554.13;;;0.97;75.68
19884;BME280;10104;50.732;10.174;2023-02-26T01:30:42;97560.16;;;0.98;76.12
19884;BME280;10104;50.732;10.174;2023-02-26T01:33:20;97561.81;;;0.99;75.07
19884;BME280;10104;50.732;10.174;2023-02-26T01:35:47;97567.28;;;0.96;75.15
19884;BME280;10104;50.732;10.174;2023-02-26T01:49:02;97562.63;;;0.80;75.73
19884;BME280;10104;50.732;10.174;2023-02-26T01:51:52;97564.53;;;0.78;75.56
19884;BME280;10104;50.732;10.174;2023-02-26T01:54:17;97567.66;;;0.81;75.77
19884;BME280;10104;50.732;10.174;2023-02-26T01:56:42;97569.31;;;0.73;76.27
19884;BME280;10104;50.732;10.174;2023-02-26T01:59:06;97574.91;;;0.68;75.56
19884;BME280;10104;50.732;10.174;2023-02-26T02:01:28;97582.44;;;0.52;74.85
19884;BME280;10104;50.732;10.174;2023-02-26T02:03:50;97580.00;;;0.60;75.64
19884;BME280;10104;50.732;10.174;2023-02-26T02:06:23;97588.22;;;0.25;77.06
19884;BME280;10104;50.732;10.174;2023-02-26T02:08:46;97585.63;;;0.25;79.21
19884;BME280;10104;50.732;10.174;2023-02-26T02:11:10;97586.59;;;0.24;81.27
19884;BME280;10104;50.732;10.174;2023-02-26T02:13:53;97591.19;;;0.11;84.14
19884;BME280;10104;50.732;10.174;2023-02-26T02:16:33;97592.91;;;0.31;82.07
19884;BME280;10104;50.732;10.174;2023-02-26T02:24:20;97597.88;;;0.44;82.78
19884;BME280;10104;50.732;10.174;2023-02-26T02:26:56;97593.38;;;0.46;83.36
19884;BME280;10104;50.732;10.174;2023-02-26T02:31:57;97597.41;;;0.60;82.49
19884;BME280;10104;50.732;10.174;2023-02-26T02:34:24;97607.69;;;0.71;81.92
19884;BME280;10104;50.732;10.174;2023-02-26T02:37:07;97598.28;;;0.79;81.76
19884;BME280;10104;50.732;10.174;2023-02-26T02:39:44;97602.66;;;0.89;81.12
19884;BME280;10104;50.732;10.174;2023-02-26T02:42:19;97612.25;;;0.88;80.85
19884;BME280;10104;50.732;10.174;2023-02-26T02:44:47;97614.16;;;0.76;81.70
19884;BME280;10104;50.732;10.174;2023-02-26T02:47:11;97608.53;;;0.81;82.01
19884;BME280;10104;50.732;10.174;2023-02-26T02:49:43;97623.50;;;0.79;82.19
19884;BME280;10104;50.732;10.174;2023-02-26T02:52:15;97614.03;;;0.88;81.43
19884;BME280;10104;50.732;10.174;2023-02-26T02:54:46;97618.59;;;0.95;81.26
19884;BME280;10104;50.732;10.174;2023-02-26T02:57:20;97620.50;;;1.12;80.30
19884;BME280;10104;50.732;10.174;2023-02-26T02:59:45;97626.97;;;1.08;80.05
19884;BME280;10104;50.732;10.174;2023-02-26T03:02:25;97632.03;;;1.00;79.51
19884;BME280;10104;50.732;10.174;2023-02-26T03:04:49;97633.69;;;1.01;78.26
19884;BME280;10104;50.732;10.174;2023-02-26T03:07:10;97633.38;;;0.95;78.84
19884;BME280;10104;50.732;10.174;2023-02-26T03:09:32;97636.81;;;0.86;79.24
19884;BME280;10104;50.732;10.174;2023-02-26T03:11:54;97634.47;;;0.82;77.34
19884;BME280;10104;50.732;10.174;2023-02-26T03:14:16;97627.47;;;0.73;78.77
19884;BME280;10104;50.732;10.174;2023-02-26T03:22:16;97637.84;;;0.64;79.26
19884;BME280;10104;50.732;10.174;2023-02-26T03:27:21;97643.78;;;0.75;79.31
19884;BME280;10104;50.732;10.174;2023-02-26T03:29:54;97655.13;;;0.74;79.49
19884;BME280;10104;50.732;10.174;2023-02-26T03:32:30;97663.41;;;0.89;79.08
19884;BME280;10104;50.732;10.174;2023-02-26T03:35:14;97662.34;;;0.92;78.72
19884;BME280;10104;50.732;10.174;2023-02-26T03:37:44;97659.81;;;0.80;78.04
19884;BME280;10104;50.732;10.174;2023-02-26T03:40:15;97656.44;;;0.90;76.79
19884;BME280;10104;50.732;10.174;2023-02-26T03:42:54;97669.00;;;0.75;76.55
19884;BME280;10104;50.732;10.174;2023-02-26T03:45:24;97658.84;;;0.72;77.03
19884;BME280;10104;50.732;10.174;2023-02-26T03:47:50;97667.03;;;0.58;77.49
19884;BME280;10104;50.732;10.174;2023-02-26T03:50:21;97664.94;;;0.52;77.81
19884;BME280;10104;50.732;10.174;2023-02-26T03:52:47;97670.38;;;0.39;78.23
19884;BME280;10104;50.732;10.174;2023-02-26T03:55:16;97682.66;;;0.27;78.82
19884;BME280;10104;50.732;10.174;2023-02-26T03:57:38;97680.66;;;0.40;78.29
19884;BME280;10104;50.732;10.174;2023-02-26T04:00:00;97684.91;;;0.42;78.06
19884;BME280;10104;50.732;10.174;2023-02-26T04:02:29;97689.22;;;0.52;77.64
19884;BME280;10104;50.732;10.174;2023-02-26T04:04:57;97702.66;;;0.57;77.31
19884;BME280;10104;50.732;10.174;2023-02-26T04:07:20;97706.38;;;0.55;77.10
19884;BME280;10104;50.732;10.174;2023-02-26T04:09:50;97709.03;;;0.44;77.99
19884;BME280;10104;50.732;10.174;2023-02-26T04:12:12;97712.00;;;0.60;77.38
19884;BME280;10104;50.732;10.174;2023-02-26T04:14:33;97719.31;;;0.45;77.89
19884;BME280;10104;50.732;10.174;2023-02-26T04:16:55;97722.34;;;0.50;77.81
19884;BME280;10104;50.732;10.174;2023-02-26T04:19:16;97719.38;;;0.55;78.07
19884;BME280;10104;50.732;10.174;2023-02-26T04:21:38;97722.44;;;0.60;77.50
19884;BME280;10104;50.732;10.174;2023-02-26T04:23:59;97726.22;;;0.56;77.79
19884;BME280;10104;50.732;10.174;2023-02-26T04:26:21;97729.19;;;0.72;77.18
19884;BME280;10104;50.732;10.174;2023-02-26T04:28:42;97724.97;;;0.80;77.34
19884;BME280;10104;50.732;10.174;2023-02-26T04:31:05;97727.84;;;0.77;76.88
19884;BME280;10104;50.732;10.174;2023-02-26T04:33:27;97730.44;;;0.77;76.98
19884;BME280;10104;50.732;10.174;2023-02-26T04:35:48;97730.56;;;0.76;77.32
19884;BME280;10104;50.732;10.174;2023-02-26T04:38:09;97737.31;;;0.78;77.08
19884;BME280;10104;50.732;10.174;2023-02-26T04:40:31;97737.88;;;0.82;77.23
19884;BME280;10104;50.732;10.174;2023-02-26T04:42:53;97738.69;;;0.82;76.62
19884;BME280;10104;50.732;10.174;2023-02-26T04:45:15;97744.44;;;0.76;77.02
19884;BME280;10104;50.732;10.174;2023-02-26T04:47:36;97746.38;;;0.84;76.50
19884;BME280;10104;50.732;10.174;2023-02-26T04:49:58;97756.59;;;0.97;76.24
19884;BME280;10104;50.732;10.174;2023-02-26T04:52:19;97750.47;;;0.77;76.09
19884;BME280;10104;50.732;10.174;2023-02-26T04:54:41;97752.66;;;0.81;76.33
19884;BME280;10104;50.732;10.174;2023-02-26T04:57:03;97752.72;;;0.61;76.41
19884;BME280;10104;50.732;10.174;2023-02-26T04:59:24;97759.88;;;0.68;77.44
19884;BME280;10104;50.732;10.174;2023-02-26T05:01:46;97755.59;;;0.58;77.36
19884;BME280;10104;50.732;10.174;2023-02-26T05:04:07;97760.97;;;0.66;77.41
19884;BME280;10104;50.732;10.174;2023-02-26T05:06:29;97762.69;;;0.56;77.54
19884;BME280;10104;50.732;10.174;2023-02-26T05:08:50;97764.97;;;0.70;77.69
19884;BME280;10104;50.732;10.174;2023-02-26T05:11:12;97770.66;;;0.85;76.52
19884;BME280;10104;50.732;10.174;2023-02-26T05:13:34;97774.34;;;0.82;76.74
19884;BME280;10104;50.732;10.174;2023-02-26T05:15:55;97771.28;;;0.67;77.41
19884;BME280;10104;50.732;10.174;2023-02-26T05:18:17;97778.25;;;0.67;77.19
19884;BME280;10104;50.732;10.174;2023-02-26T05:20:38;97786.78;;;0.48;78.66
19884;BME280;10104;50.732;10.174;2023-02-26T05:23:00;97781.81;;;0.66;78.01
19884;BME280;10104;50.732;10.174;2023-02-26T05:25:21;97791.72;;;0.51;78.87
19884;BME280;10104;50.732;10.174;2023-02-26T05:27:43;97797.38;;;0.56;78.53
19884;BME280;10104;50.732;10.174;2023-02-26T05:30:05;97791.56;;;0.43;79.37
19884;BME280;10104;50.732;10.174;2023-02-26T05:32:27;97799.50;;;0.42;80.32
19884;BME280;10104;50.732;10.174;2023-02-26T05:34:49;97802.03;;;0.32;80.42
19884;BME280;10104;50.732;10.174;2023-02-26T05:37:10;97796.75;;;0.22;81.82
19884;BME280;10104;50.732;10.174;2023-02-26T05:39:32;97809.69;;;0.13;82.32
19884;BME280;10104;50.732;10.174;2023-02-26T05:41:53;97812.06;;;0.16;82.45
19884;BME280;10104;50.732;10.174;2023-02-26T05:44:15;97817.75;;;0.10;82.62
19884;BME280;10104;50.732;10.174;2023-02-26T05:46:37;97817.88;;;0.08;82.79
19884;BME280;10104;50.732;10.174;2023-02-26T05:48:58;97825.34;;;0.02;84.38
19884;BME280;10104;50.732;10.174;2023-02-26T05:51:20;97831.66;;;-0.01;84.44
19884;BME280;10104;50.732;10.174;2023-02-26T05:53:42;97828.94;;;-0.11;86.00
19884;BME280;10104;50.732;10.174;2023-02-26T05:56:03;97835.91;;;-0.11;86.08
19884;BME280;10104;50.732;10.174;2023-02-26T05:58:26;97844.84;;;-0.25;86.99
19884;BME280;10104;50.732;10.174;2023-02-26T06:00:48;97849.41;;;-0.17;87.83
19884;BME280;10104;50.732;10.174;2023-02-26T06:03:10;97850.50;;;-0.20;87.92
19884;BME280;10104;50.732;10.174;2023-02-26T06:05:31;97849.00;;;-0.33;89.03
19884;BME280;10104;50.732;10.174;2023-02-26T06:07:53;97854.75;;;-0.30;88.67
19884;BME280;10104;50.732;10.174;2023-02-26T06:10:14;97868.63;;;-0.41;89.28
19884;BME280;10104;50.732;10.174;2023-02-26T06:12:36;97865.09;;;-0.39;90.11
19884;BME280;10104;50.732;10.174;2023-02-26T06:14:58;97873.94;;;-0.42;89.58
19884;BME280;10104;50.732;10.174;2023-02-26T06:17:19;97880.56;;;-0.38;89.62
19884;BME280;10104;50.732;10.174;2023-02-26T06:19:41;97881.84;;;-0.32;88.61
19884;BME280;10104;50.732;10.174;2023-02-26T06:22:02;97888.00;;;-0.33;89.14
19884;BME280;10104;50.732;10.174;2023-02-26T06:24:24;97890.34;;;-0.30;88.70
19884;BME280;10104;50.732;10.174;2023-02-26T06:26:46;97895.34;;;-0.38;88.80
19884;BME280;10104;50.732;10.174;2023-02-26T06:29:08;97900.88;;;-0.21;88.16
19884;BME280;10104;50.732;10.174;2023-02-26T06:31:29;97909.88;;;-0.36;88.92
19884;BME280;10104;50.732;10.174;2023-02-26T06:33:51;97917.81;;;-0.37;89.27
19884;BME280;10104;50.732;10.174;2023-02-26T06:36:12;97920.88;;;-0.32;89.50
19884;BME280;10104;50.732;10.174;2023-02-26T06:38:34;97922.88;;;-0.47;90.77
19884;BME280;10104;50.732;10.174;2023-02-26T06:40:56;97928.34;;;-0.50;90.94
19884;BME280;10104;50.732;10.174;2023-02-26T06:43:17;97935.41;;;-0.41;90.88
19884;BME280;10104;50.732;10.174;2023-02-26T06:45:38;97932.78;;;-0.30;90.17
19884;BME280;10104;50.732;10.174;2023-02-26T06:48:00;97941.91;;;-0.35;90.51
19884;BME280;10104;50.732;10.174;2023-02-26T06:50:22;97944.28;;;-0.32;90.77
19884;BME280;10104;50.732;10.174;2023-02-26T06:52:43;97955.38;;;-0.30;90.11
19884;BME280;10104;50.732;10.174;2023-02-26T06:55:05;97957.97;;;-0.30;90.01
19884;BME280;10104;50.732;10.174;2023-02-26T06:57:27;97962.13;;;-0.17;89.36
19884;BME280;10104;50.732;10.174;2023-02-26T06:59:48;97963.31;;;-0.21;89.46
19884;BME280;10104;50.732;10.174;2023-02-26T07:02:16;97965.09;;;-0.21;89.76
19884;BME280;10104;50.732;10.174;2023-02-26T07:04:38;97969.56;;;-0.12;88.72
19884;BME280;10104;50.732;10.174;2023-02-26T07:07:00;97976.41;;;-0.11;88.32
19884;BME280;10104;50.732;10.174;2023-02-26T07:09:21;97982.69;;;-0.03;88.22
19884;BME280;10104;50.732;10.174;2023-02-26T07:11:43;97985.28;;;0.09;87.20
19884;BME280;10104;50.732;10.174;2023-02-26T07:14:04;97987.03;;;0.19;87.05
19884;BME280;10104;50.732;10.174;2023-02-26T07:16:26;98001.25;;;0.15;86.78
19884;BME280;10104;50.732;10.174;2023-02-26T07:18:48;97997.31;;;0.21;86.30
19884;BME280;10104;50.732;10.174;2023-02-26T07:21:09;98005.84;;;0.23;85.55
19884;BME280;10104;50.732;10.174;2023-02-26T07:23:31;98011.63;;;0.26;85.54
19884;BME280;10104;50.732;10.174;2023-02-26T07:25:52;98016.25;;;0.34;85.29
19884;BME280;10104;50.732;10.174;2023-02-26T07:28:14;98015.44;;;0.22;85.48
19884;BME280;10104;50.732;10.174;2023-02-26T07:30:35;98021.34;;;0.35;83.40
19884;BME280;10104;50.732;10.174;2023-02-26T07:32:57;98024.25;;;0.53;82.58
19884;BME280;10104;50.732;10.174;2023-02-26T07:35:18;98016.34;;;0.32;81.97
19884;BME280;10104;50.732;10.174;2023-02-26T07:37:40;98030.81;;;0.36;82.57
19884;BME280;10104;50.732;10.174;2023-02-26T07:40:02;98031.16;;;0.43;81.46
19884;BME280;10104;50.732;10.174;2023-02-26T07:42:24;98031.59;;;0.48;81.83
19884;BME280;10104;50.732;10.174;2023-02-26T07:44:46;98040.97;;;0.39;81.37
19884;BME280;10104;50.732;10.174;2023-02-26T07:47:07;98048.41;;;0.44;81.47
19884;BME280;10104;50.732;10.174;2023-02-26T07:49:29;98044.84;;;0.45;81.02
19884;BME280;10104;50.732;10.174;2023-02-26T07:51:52;98051.50;;;0.49;80.07
19884;BME280;10104;50.732;10.174;2023-02-26T07:54:14;98053.34;;;0.58;79.96
19884;BME280;10104;50.732;10.174;2023-02-26T07:56:35;98051.44;;;0.71;79.38
19884;BME280;10104;50.732;10.174;2023-02-26T07:58:58;98056.44;;;0.63;78.64
19884;BME280;10104;50.732;10.174;2023-02-26T08:01:20;98054.88;;;0.72;78.11
19884;BME280;10104;50.732;10.174;2023-02-26T08:03:41;98056.66;;;0.71;77.78
19884;BME280;10104;50.732;10.174;2023-02-26T08:06:03;98056.66;;;0.71;76.21
19884;BME280;10104;50.732;10.174;2023-02-26T08:08:26;98067.31;;;0.68;75.77
19884;BME280;10104;50.732;10.174;2023-02-26T08:10:47;98063.91;;;0.68;74.82
19884;BME280;10104;50.732;10.174;2023-02-26T08:13:09;98071.56;;;0.69;75.11
19884;BME280;10104;50.732;10.174;2023-02-26T08:15:31;98082.94;;;0.68;75.33
19884;BME280;10104;50.732;10.174;2023-02-26T08:17:52;98076.78;;;0.69;75.18
19884;BME280;10104;50.732;10.174;2023-02-26T08:20:14;98081.41;;;0.66;74.77
19884;BME280;10104;50.732;10.174;2023-02-26T08:22:36;98080.94;;;0.72;74.41
19884;BME280;10104;50.732;10.174;2023-02-26T08:24:59;98088.75;;;0.72;73.96
19884;BME280;10104;50.732;10.174;2023-02-26T08:27:20;98084.00;;;0.77;72.10
19884;BME280;10104;50.732;10.174;2023-02-26T08:29:41;98087.56;;;0.65;72.63
19884;BME280;10104;50.732;10.174;2023-02-26T08:32:04;98089.56;;;0.72;72.89
19884;BME280;10104;50.732;10.174;2023-02-26T08:34:25;98087.81;;;0.73;72.89
19884;BME280;10104;50.732;10.174;2023-02-26T08:36:47;98095.28;;;0.66;73.05
19884;BME280;10104;50.732;10.174;2023-02-26T08:39:10;98094.91;;;0.71;73.01
19884;BME280;10104;50.732;10.174;2023-02-26T08:41:32;98095.63;;;0.73;72.54
19884;BME280;10104;50.732;10.174;2023-02-26T08:43:57;98095.38;;;0.76;72.04
19884;BME280;10104;50.732;10.174;2023-02-26T08:46:18;98094.78;;;0.72;72.23
19884;BME280;10104;50.732;10.174;2023-02-26T08:48:40;98101.44;;;0.65;72.48
19884;BME280;10104;50.732;10.174;2023-02-26T08:51:01;98101.88;;;0.70;72.14
19884;BME280;10104;50.732;10.174;2023-02-26T08:53:23;98103.56;;;0.71;72.45
19884;BME280;10104;50.732;10.174;2023-02-26T08:55:51;98110.91;;;0.66;71.81
19884;BME280;10104;50.732;10.174;2023-02-26T08:58:13;98129.34;;;0.74;71.82
19884;BME280;10104;50.732;10.174;2023-02-26T09:00:35;98130.66;;;0.69;72.15
19884;BME280;10104;50.732;10.174;2023-02-26T09:02:56;98128.28;;;0.77;71.90
19884;BME280;10104;50.732;10.174;2023-02-26T09:05:18;98135.88;;;0.80;72.60
19884;BME280;10104;50.732;10.174;2023-02-26T09:07:40;98145.09;;;0.84;71.59
19884;BME280;10104;50.732;10.174;2023-02-26T09:10:03;98152.81;;;0.86;71.92
19884;BME280;10104;50.732;10.174;2023-02-26T09:12:25;98156.72;;;0.91;71.75
19884;BME280;10104;50.732;10.174;2023-02-26T09:14:46;98156.44;;;0.94;72.26
19884;BME280;10104;50.732;10.174;2023-02-26T09:17:08;98164.06;;;0.86;71.76
19884;BME280;10104;50.732;10.174;2023-02-26T09:19:29;98156.72;;;0.91;74.01
19884;BME280;10104;50.732;10.174;2023-02-26T09:21:51;98165.56;;;1.00;72.63
19884;BME280;10104;50.732;10.174;2023-02-26T09:24:12;98167.22;;;1.01;72.30
19884;BME280;10104;50.732;10.174;2023-02-26T09:26:35;98178.72;;;1.09;72.57
19884;BME280;10104;50.732;10.174;2023-02-26T09:28:56;98178.94;;;1.06;72.72
19884;BME280;10104;50.732;10.174;2023-02-26T09:31:18;98184.53;;;1.02;72.32
19884;BME280;10104;50.732;10.174;2023-02-26T09:33:39;98189.25;;;1.08;72.97
19884;BME280;10104;50.732;10.174;2023-02-26T09:36:02;98192.66;;;1.19;73.32
19884;BME280;10104;50.732;10.174;2023-02-26T09:38:23;98197.53;;;1.13;73.11
19884;BME280;10104;50.732;10.174;2023-02-26T09:40:59;98196.44;;;1.27;72.24
19884;BME280;10104;50.732;10.174;2023-02-26T09:43:33;98200.25;;;1.23;71.88
19884;BME280;10104;50.732;10.174;2023-02-26T09:45:57;98205.94;;;1.28;71.46
19884;BME280;10104;50.732;10.174;2023-02-26T09:48:23;98210.66;;;1.34;70.86
19884;BME280;10104;50.732;10.174;2023-02-26T09:50:50;98210.28;;;1.38;70.09
19884;BME280;10104;50.732;10.174;2023-02-26T09:53:25;98212.81;;;1.29;71.24
19884;BME280;10104;50.732;10.174;2023-02-26T09:55:55;98210.88;;;1.31;71.89
19884;BME280;10104;50.732;10.174;2023-02-26T09:58:33;98213.00;;;1.37;71.54
19884;BME280;10104;50.732;10.174;2023-02-26T10:01:22;98219.75;;;1.39;71.96
19884;BME280;10104;50.732;10.174;2023-02-26T10:04:13;98221.38;;;1.51;69.71
19884;BME280;10104;50.732;10.174;2023-02-26T10:09:43;98234.78;;;1.58;70.76
19884;BME280;10104;50.732;10.174;2023-02-26T10:12:19;98228.00;;;1.67;70.22
19884;BME280;10104;50.732;10.174;2023-02-26T10:15:00;98234.94;;;1.77;70.15
19884;BME280;10104;50.732;10.174;2023-02-26T10:20:21;98243.78;;;1.86;69.74
19884;BME280;10104;50.732;10.174;2023-02-26T10:22:54;98244.88;;;1.83;69.41
19884;BME280;10104;50.732;10.174;2023-02-26T10:25:21;98252.91;;;1.91;68.54
19884;BME280;10104;50.732;10.174;2023-02-26T10:30:15;98251.97;;;1.92;68.25
19884;BME280;10104;50.732;10.174;2023-02-26T10:32:51;98258.84;;;1.93;68.19
19884;BME280;10104;50.732;10.174;2023-02-26T10:35:17;98261.06;;;1.98;68.33
19884;BME280;10104;50.732;10.174;2023-02-26T10:37:50;98258.72;;;1.95;68.00
19884;BME280;10104;50.732;10.174;2023-02-26T10:45:32;98266.94;;;1.90;68.27
19884;BME280;10104;50.732;10.174;2023-02-26T10:50:38;98279.81;;;2.03;68.89
19884;BME280;10104;50.732;10.174;2023-02-26T10:53:04;98278.22;;;2.12;68.92
19884;BME280;10104;50.732;10.174;2023-02-26T10:55:45;98276.84;;;2.08;69.54
19884;BME280;10104;50.732;10.174;2023-02-26T10:58:11;98276.44;;;2.12;69.24
19884;BME280;10104;50.732;10.174;2023-02-26T11:00:34;98285.94;;;2.13;69.26
19884;BME280;10104;50.732;10.174;2023-02-26T11:02:56;98284.06;;;2.04;68.73
19884;BME280;10104;50.732;10.174;2023-02-26T11:05:21;98291.41;;;2.10;68.35
19884;BME280;10104;50.732;10.174;2023-02-26T11:07:46;98289.56;;;2.01;68.50
19884;BME280;10104;50.732;10.174;2023-02-26T11:10:24;98293.59;;;2.26;67.57
19884;BME280;10104;50.732;10.174;2023-02-26T11:12:46;98284.63;;;2.19;67.78
19884;BME280;10104;50.732;10.174;2023-02-26T11:15:12;98288.22;;;2.07;68.26
19884;BME280;10104;50.732;10.174;2023-02-26T11:17:34;98284.81;;;2.27;67.84
19884;BME280;10104;50.732;10.174;2023-02-26T11:22:58;98286.84;;;2.44;66.16
19884;BME280;10104;50.732;10.174;2023-02-26T11:25:23;98282.19;;;2.48;66.47
19884;BME280;10104;50.732;10.174;2023-02-26T11:27:48;98290.03;;;2.48;66.30
19884;BME280;10104;50.732;10.174;2023-02-26T11:30:18;98280.25;;;2.40;65.32
19884;BME280;10104;50.732;10.174;2023-02-26T11:32:40;98288.91;;;2.40;65.71
19884;BME280;10104;50.732;10.174;2023-02-26T11:35:07;98290.22;;;2.56;63.89
19884;BME280;10104;50.732;10.174;2023-02-26T11:37:30;98284.38;;;2.42;63.35
19884;BME280;10104;50.732;10.174;2023-02-26T11:39:57;98286.41;;;2.39;63.94
19884;BME280;10104;50.732;10.174;2023-02-26T11:42:19;98290.19;;;2.46;63.70
19884;BME280;10104;50.732;10.174;2023-02-26T11:44:43;98287.28;;;2.49;63.47
19884;BME280;10104;50.732;10.174;2023-02-26T11:47:11;98292.66;;;2.48;63.63
19884;BME280;10104;50.732;10.174;2023-02-26T11:49:34;98285.97;;;2.55;63.72
19884;BME280;10104;50.732;10.174;2023-02-26T11:54:34;98294.63;;;2.55;64.16
19884;BME280;10104;50.732;10.174;2023-02-26T11:57:05;98283.03;;;2.69;63.23
19884;BME280;10104;50.732;10.174;2023-02-26T11:59:30;98290.16;;;2.67;64.28
19884;BME280;10104;50.732;10.174;2023-02-26T12:01:52;98279.97;;;2.64;64.46
19884;BME280;10104;50.732;10.174;2023-02-26T12:04:19;98286.59;;;2.68;63.13
19884;BME280;10104;50.732;10.174;2023-02-26T12:06:41;98287.19;;;2.71;62.88
19884;BME280;10104;50.732;10.174;2023-02-26T12:09:09;98294.31;;;2.69;62.29
19884;BME280;10104;50.732;10.174;2023-02-26T12:20:12;98286.25;;;2.82;61.17
19884;BME280;10104;50.732;10.174;2023-02-26T12:28:35;98289.00;;;2.80;60.48
19884;BME280;10104;50.732;10.174;2023-02-26T12:37:27;98286.41;;;2.90;60.67
19884;BME280;10104;50.732;10.174;2023-02-26T12:42:05;98290.19;;;2.97;60.47
19884;BME280;10104;50.732;10.174;2023-02-26T12:47:13;98287.41;;;3.29;58.55
19884;BME280;10104;50.732;10.174;2023-02-26T13:00:58;98289.91;;;3.31;57.33
19884;BME280;10104;50.732;10.174;2023-02-26T13:06:41;98292.19;;;3.14;54.70
19884;BME280;10104;50.732;10.174;2023-02-26T13:14:20;98292.03;;;3.06;55.19
19884;BME280;10104;50.732;10.174;2023-02-26T13:17:10;98296.50;;;2.95;55.74
19884;BME280;10104;50.732;10.174;2023-02-26T13:19:55;98293.63;;;2.98;55.61
19884;BME280;10104;50.732;10.174;2023-02-26T13:22:46;98290.44;;;2.94;56.07
19884;BME280;10104;50.732;10.174;2023-02-26T13:25:42;98289.88;;;2.91;56.04
19884;BME280;10104;50.732;10.174;2023-02-26T13:28:24;98296.88;;;2.90;55.39
19884;BME280;10104;50.732;10.174;2023-02-26T13:30:55;98301.38;;;2.78;56.59
19884;BME280;10104;50.732;10.174;2023-02-26T13:33:30;98302.59;;;2.74;56.17
19884;BME280;10104;50.732;10.174;2023-02-26T13:35:53;98299.28;;;2.72;57.01
19884;BME280;10104;50.732;10.174;2023-02-26T13:44:26;98305.13;;;2.85;58.00
19884;BME280;10104;50.732;10.174;2023-02-26T13:50:02;98303.63;;;2.83;58.33
19884;BME280;10104;50.732;10.174;2023-02-26T13:52:31;98300.72;;;2.86;59.02
19884;BME280;10104;50.732;10.174;2023-02-26T13:54:54;98304.34;;;2.95;57.14
19884;BME280;10104;50.732;10.174;2023-02-26T14:08:55;98300.81;;;3.36;58.53
19884;BME280;10104;50.732;10.174;2023-02-26T14:10:55;98307.28;;;3.41;56.61
19884;BME280;10104;50.732;10.174;2023-02-26T14:13:22;98301.88;;;3.23;54.41
19884;BME280;10104;50.732;10.174;2023-02-26T14:16:09;98308.34;;;3.19;54.79
19884;BME280;10104;50.732;10.174;2023-02-26T14:18:47;98307.28;;;3.01;54.15
19884;BME280;10104;50.732;10.174;2023-02-26T14:21:27;98305.22;;;3.05;54.37
19884;BME280;10104;50.732;10.174;2023-02-26T14:23:58;98314.06;;;2.83;54.15
19884;BME280;10104;50.732;10.174;2023-02-26T14:26:22;98313.81;;;2.86;53.80
19884;BME280;10104;50.732;10.174;2023-02-26T14:31:25;98314.13;;;2.72;53.34
19884;BME280;10104;50.732;10.174;2023-02-26T14:34:06;98312.50;;;2.71;53.94
19884;BME280;10104;50.732;10.174;2023-02-26T14:38:57;98317.00;;;2.90;55.32
19884;BME280;10104;50.732;10.174;2023-02-26T14:41:32;98315.69;;;2.84;54.87
19884;BME280;10104;50.732;10.174;2023-02-26T14:46:27;98324.06;;;2.78;55.64
19884;BME280;10104;50.732;10.174;2023-02-26T14:48:50;98321.22;;;2.60;56.68
19884;BME280;10104;50.732;10.174;2023-02-26T14:54:01;98323.81;;;2.60;56.60
19884;BME280;10104;50.732;10.174;2023-02-26T14:56:35;98324.31;;;2.54;58.00
19884;BME280;10104;50.732;10.174;2023-02-26T15:02:02;98324.53;;;2.83;57.68
19884;BME280;10104;50.732;10.174;2023-02-26T15:04:49;98323.25;;;2.77;56.96